東京/羽田 の空港の天気 - METARとTAF

東京国際空港 ( RJTT / HND ) - 東京都大田区
飛行場実況気象(Metar)
観測時間11/24 00:00 JST (11/23 15:00 UTC)
風向・風速北北西 8m/s
視程10km以上
天気現象
少しの雲 雲底高度 610m
全天の8割程度の雲 雲底高度 1830m
気温11℃
湿度47%
気圧1010hPa
METARRJTT 231500Z 33015KT 9999 FEW020 BKN060 11/M00 Q1010 NOSIG RMK 1CU020 6AC060 A2983
過去の天気等 Google飛行場航空写真 Wunderground天気予報

過去48時間のMETAR

飛行場予報(TAF)
発表時間: 11/23 20:05 JST (11/23 11:05 UTC)
予報対象時間: 23日21時 JST ~ 25日3時 JST
風向・風速北北西 8m/s
視程10km以上
少しの雲 雲底高度 910m
全天の8割程度の雲 雲底高度 1,520m
24日2時 JST ~ 24日4時 JST に徐々に
風向・風速北北西 3m/s
24日7時 JST ~ 24日9時 JST に徐々に
風向・風速南 3m/s
24日12時 JST ~ 24日15時 JST に徐々に
風向・風速南西 6m/s
TAF RJTT 231105Z 2312/2418 34016KT 9999 FEW030 BKN050
BECMG 2317/2319 33005KT
BECMG 2322/2400 17006KT
BECMG 2403/2406 23012KT
日本の空港のMETAR・TAFへのリンク

RJTT 東京国際空港
RJAA 新東京国際空港
RJBB 関西国際空港
RJOO 大阪空港
RJGG 中部国際空港
RJCC 新千歳空港
RJFF 福岡空港
ROAH 那覇空港


RJEC 旭川空港
RJCH 函館空港
RJCK 釧路空港
RJCM 女満別空港
RJCB 帯広空港
RJSA 青森空港
RJSS 仙台空港
RJSK 秋田空港
RJSF 福島空港
RJAH 茨城空港
RJSN 新潟空港
RJNT 富山空港
RJNK 小松飛行場
RJNS 静岡空港
RJOH 美保飛行場
RJOC 出雲空港
RJOB 岡山空港
RJOA 広島空港
RJOI 岩国飛行場
RJOT 高松空港
RJOM 松山空港
RJOK 高知空港
RJFR 北九州空港
RJFT 熊本空港
RJFU 長崎空港
RJFS 佐賀空港
RJFO 大分空港
RJFM 宮崎空港
RJFK 鹿児島空港
ROIG 石垣島空港
RJTY 横田飛行場
ROTM 普天間飛行場
RODN 嘉手納飛行場